Aérodrome :
LOGIN :

S'inscrire | Disclaimer

   EN    FR    IT 

 










Légende :    VFR   VFR Marginal   IFR   IFR Intensif   IFR Très Intensif
Visi : 
Plafond : 
>= 8 km
>= 3000ft
5 à 8 km
1000 à 3000 ft
1500m à 5 km
500 à 1000 ft
800 à 1500m
200 à 500 ft
< 800m
< 200 ft
Symboles :   Orages  Brouillard  Fortes neiges  Fortes précipitations  Vent > 20 kt
SIGMETs :   Divers  Orages  Givrage  Turbulence  Onde Orograph.  Cendres Volcan.







- Altitude de l'aérodrome : 74 ft
- Code IATA : EIN


EHEH - Eindhoven

DERNIER METAR :
  • 161855Z AUTO 32008KT 280V010 9999 OVC320 22/16 Q1014 BLU 32004KT 9999 FEW045

METARs EXPIRÉS :
  • 161825Z AUTO 33003KT 9999 BKN330 23/15 Q1014 BLU 32004KT 9999 FEW045
  • 161755Z AUTO 31003KT 270V360 9999 FEW053 24/15 Q1014 BLU VRB03KT 9999 FEW045
  • 161725Z AUTO VRB02KT 9999 FEW045 BKN050 BKN057 25/15 Q1014 BLU VRB03KT 9999 FEW045
  • 161655Z AUTO VRB02KT 9999 FEW053 OVC370 25/14 Q1014 BLU 27006KT 9999 FEW045
  • 161625Z AUTO VRB05KT 9999 NCD 25/14 Q1014 BLU 27006KT 9999 FEW045

TAF TAF EHEH
Valide du 16 à 18h jusqu'au 18 à 00h UTC


161710Z 1618/1724 28005KT CAVOK
TEMPO 1701/1707 4000 RA BR FEW007 SCT010 BKN070
PROB30
TEMPO 1702/1707 3500 SHRA TSRA SCT007 BKN030 SCT060CB BKN070
BECMG 1703/1707 VRB03KT
BECMG 1708/1710 33007KT
BECMG 1713/1715 29005KT
Pas de NOTAMs connus pour ce terrain.



MET'MAP, la Météo Aéronautique d'un coup d'oeil ! - Copyright ORBIFLY Décembre 2007 - Disclaimer

ORBIFLY MET'MAP TEAM :

Programmation & Développement : Alexandra Zaïnal
Conception & Développement : Baudouin d'Aumeries
Co-Programmation & Développement : Marc-Olivier Méhu
Soutien technique & logistique : Manuel Goepfert

Contact : metmap@orbifly.com




SOURCES & CREDITS :

   NOAA